• Join FlightAware (Why Join?)
  • Login
  • US Flag 
05:38AM EDT


 

Airport Tracker/Info


-or-


 

Live Flight TrackerFlight Track Log ✈ THY2335 ✈ 25-Apr-2012 ✈ LTBJ / ADB - LTBA / IST

Flight Track Log - Related Links

Times and Time Zones

All times are in EDT time to prevent confusion due to time zone crossing. See the THY2335 flight status page for this flight to view local times or setup timezone preferences in your user account.

Time Position Orientation Groundspeed Altitude Reporting Facility
EDT Latitude Longitude Course Direction KTS MPH feet Rate Location/Type
01:28PM 38.4481 27.2496 25° Northeast  Level Estimated
01:29PM 38.5173 27.2910 25° Northeast  Level Estimated
01:30PM 38.5864 27.3324 25° Northeast  Level Estimated
01:31PM 38.6556 27.3739 25° Northeast  Level Estimated
01:32PM 38.7247 27.4154 25° Northeast  Level Estimated
01:33PM 38.7938 27.4571 25° Northeast  Level Estimated
01:34PM 38.8629 27.4988 25° Northeast  Level Estimated
01:35PM 38.9320 27.5406 25° Northeast  Level Estimated
01:36PM 39.0011 27.5825 25° Northeast  Level Estimated
01:37PM 39.0701 27.6245 25° Northeast  Level Estimated
01:38PM 39.1392 27.6665 25° Northeast  Level Estimated
01:39PM 39.2082 27.7087 25° Northeast  Level Estimated
01:40PM 39.2772 27.7509 25° Northeast  Level Estimated
01:41PM 39.3462 27.7932 25° Northeast  Level Estimated
01:42PM 39.4152 27.8356 25° Northeast  Level Estimated
01:43PM 39.4842 27.8781 25° Northeast  Level Estimated
01:44PM 39.5531 27.9206 25° Northeast  Level Estimated
01:45PM 39.6221 27.9633 25° Northeast  Level Estimated
01:46PM 39.6910 28.0060 26° Northeast  Level Estimated
01:47PM 39.7599 28.0488 26° Northeast  Level Estimated
01:48PM 39.8288 28.0917 26° Northeast  Level Estimated
01:49PM 39.8977 28.1347 26° Northeast  Level Estimated
01:50PM 39.9665 28.1777 26° Northeast  Level Estimated
01:51PM 40.0354 28.2209 26° Northeast  Level Estimated
01:52PM 40.1042 28.2641 26° Northeast  Level Estimated
01:53PM 40.1730 28.3075 26° Northeast  Level Estimated
01:54PM 40.2418 28.3509 26° Northeast  Level Estimated
01:55PM 40.3106 28.3944 26° Northeast  Level Estimated
01:56PM 40.3793 28.4380 26° Northeast  Level Estimated
01:57PM 40.4481 28.4817 26° Northeast  Level Estimated
01:58PM 40.5168 28.5254 26° Northeast  Level Estimated
01:59PM 40.5855 28.5693 26° Northeast  Level Estimated
02:00PM 40.6542 28.6133 26° Northeast  Level Estimated
02:01PM 40.7229 28.6573 26° Northeast  Level Estimated
02:02PM 40.7915 28.7014 26° Northeast  Level Estimated
02:03PM 40.8601 28.7457 26° Northeast  Level Estimated
02:04PM 40.9288 28.7900 26° Northeast  Level Estimated
02:05PM 40.9974 28.8344 206° Southwest  Level Estimated
02:06PM 40.9288 28.7900 26° Northeast  Level Estimated
02:07PM 40.9974 28.8344 206° Southwest  Level Estimated
02:08PM 40.9288 28.7900 26° Northeast  Level Estimated
02:09PM 40.9974 28.8344 206° Southwest  Level Estimated
02:10PM 40.9288 28.7900 26° Northeast  Level Estimated
02:11PM 40.9974 28.8344 206° Southwest  Level Estimated
02:12PM 40.9288 28.7900 26° Northeast  Level Estimated
02:13PM 40.9974 28.8344 206° Southwest  Level Estimated
02:14PM 40.9288 28.7900 26° Northeast  Level Estimated
02:15PM 40.9974 28.8344 26° Northeast  Level Estimated